| Date | Time | Temp. (oF) | Dew Point (oF) | Rel. Hum. (%) | Press. (in.) | Wind Dir. | Wind Speed (mph) | Hourly Rainfall (in.) |
|
|---|---|---|---|---|---|---|---|---|---|
| 1 | 02/09 | 00:00 | 44 | 38 | 81 | 29.63 | NW | 2 | 0.00 |
| 2 | 02/08 | 23:00 | 45 | 36 | 71 | 29.64 | NW | 3 | 0.00 |
| 3 | 02/08 | 22:00 | 46 | 35 | 66 | 29.63 | NW | 7 | 0.00 |
| 4 | 02/08 | 21:00 | 47 | 36 | 68 | 29.68 | NW | 2 | 0.00 |
| 5 | 02/08 | 20:00 | 48 | 37 | 66 | 29.70 | NW | 4 | 0.00 |
| 6 | 02/08 | 19:00 | 50 | 37 | 61 | 29.70 | NW | 6 | 0.00 |
| 7 | 02/08 | 18:00 | 51 | 37 | 60 | 29.69 | NW | 8 | 0.00 |
| 8 | 02/08 | 17:00 | 53 | 38 | 57 | 29.67 | NW | 7 | 0.00 |
| 9 | 02/08 | 16:00 | 56 | 39 | 55 | 29.68 | NW | 10 | 0.00 |
| 10 | 02/08 | 15:00 | 57 | 40 | 54 | 29.66 | NW | 5 | 0.00 |
| 11 | 02/08 | 14:00 | 61 | 41 | 48 | 29.64 | NW | 7 | 0.00 |
| 12 | 02/08 | 13:00 | 61 | 42 | 50 | 29.64 | NW | 12 | 0.00 |
| 13 | 02/08 | 12:00 | 60 | 45 | 58 | 29.68 | NW | 9 | 0.00 |
| 14 | 02/08 | 11:00 | 59 | 48 | 67 | 29.68 | NW | 9 | 0.00 |
| 15 | 02/08 | 10:00 | 56 | 47 | 72 | 29.65 | NW | 6 | 0.00 |
| 16 | 02/08 | 09:00 | 58 | 47 | 67 | 29.60 | NW | 1 | 0.00 |
| 17 | 02/08 | 08:00 | 54 | 45 | 73 | 29.57 | NW | 1 | 0.00 |
| 18 | 02/08 | 07:00 | 53 | 46 | 78 | 29.55 | NW | 3 | 0.00 |
| 19 | 02/08 | 06:00 | 54 | 46 | 76 | 29.54 | NW | 4 | 0.00 |
| 20 | 02/08 | 05:00 | 54 | 48 | 81 | 29.53 | NW | 1 | 0.00 |
| 21 | 02/08 | 04:00 | 54 | 49 | 85 | 29.51 | NW | 2 | 0.00 |
| 22 | 02/08 | 03:00 | 54 | 49 | 85 | 29.51 | NW | 0 | 0.00 |
| 23 | 02/08 | 02:00 | 54 | 48 | 82 | 29.51 | NW | 1 | 0.00 |
| 24 | 02/08 | 01:00 | 62 | 50 | 67 | 29.50 | NW | 7 | 0.00 |